Time;durP1;ratioP1;P1;durP2;ratioP2;P2;SDS_P1;SDS_P2;PMS_P1;PMS_P2;Temp;Humidity;BMP_temperature;BMP_pressure;BME280_temperature;BME280_humidity;BME280_pressure;Samples;Min_cycle;Max_cycle;Signal;HPM_P1;HPM_P2
2023/04/10 00:02:18;;;;;;;;;;;;;;;8.66;100.00;99457.81;4914225;29;19923;-84
2023/04/10 00:04:43;;;;;;;;;;;;;;;8.66;100.00;99455.19;4893190;29;19927;-85
2023/04/10 00:07:10;;;;;;;;;;;;;;;8.62;100.00;99456.50;4922923;29;19919;-85
2023/04/10 00:09:35;;;;;;;;;;;;;;;8.62;100.00;99451.22;4894727;29;19965;-85
2023/04/10 00:12:01;;;;;;;;;;;;;;;8.62;100.00;99455.66;4899019;29;20339;-85
2023/04/10 00:14:27;;;;;;;;;;;;;;;8.59;100.00;99446.28;4894020;29;20574;-85
2023/04/10 00:16:52;;;;;;;;;;;;;;;8.56;100.00;99439.53;4930114;29;20431;-85
2023/04/10 00:19:18;;;;;;;;;;;;;;;8.54;100.00;99441.47;4914178;29;20260;-85
2023/04/10 00:21:43;;;;;;;;;;;;;;;8.52;100.00;99446.03;4912078;29;19928;-85
2023/04/10 00:24:09;;;;;;;;;;;;;;;8.45;100.00;99442.38;4913756;29;20300;-86
2023/04/10 00:26:35;;;;;;;;;;;;;;;8.40;100.00;99436.75;4893478;29;19923;-85
2023/04/10 00:29:01;;;;;;;;;;;;;;;8.38;100.00;99420.28;4913553;29;19927;-85
2023/04/10 00:31:27;;;;;;;;;;;;;;;8.31;100.00;99414.81;4896183;29;19927;-78
2023/04/10 00:33:53;;;;;;;;;;;;;;;8.31;100.00;99409.56;4891440;29;20347;-78
2023/04/10 00:36:19;;;;;;;;;;;;;;;8.29;100.00;99409.72;4945627;28;19922;-78
2023/04/10 00:38:46;;;;;;;;;;;;;;;8.27;100.00;99409.03;4877595;29;20349;-78
2023/04/10 00:41:12;;;;;;;;;;;;;;;8.27;100.00;99414.28;4918031;29;19923;-85
2023/04/10 00:43:37;;;;;;;;;;;;;;;8.28;100.00;99408.03;4897214;29;19919;-85
2023/04/10 00:46:04;;;;;;;;;;;;;;;8.28;100.00;99420.41;4917197;29;19971;-86
2023/04/10 00:48:30;;;;;;;;;;;;;;;8.26;100.00;99414.44;4912690;29;19919;-86
2023/04/10 00:50:56;;;;;;;;;;;;;;;8.23;100.00;99404.22;4923081;29;20014;-85
2023/04/10 00:53:22;;;;;;;;;;;;;;;8.22;100.00;99405.22;4927392;29;19927;-85
2023/04/10 00:55:48;;;;;;;;;;;;;;;8.21;100.00;99400.91;4914957;29;19922;-85
2023/04/10 00:58:14;;;;;;;;;;;;;;;8.19;100.00;99406.34;4911513;29;20392;-85
2023/04/10 01:00:40;;;;;;;;;;;;;;;8.22;100.00;99413.13;4901933;29;19967;-78
2023/04/10 01:03:10;;;;;;;;;;;;;;;8.21;100.00;99409.66;4927698;29;19923;-78
2023/04/10 01:05:40;;;;;;;;;;;;;;;8.21;100.00;99411.44;4929269;29;19952;-78
2023/04/10 01:08:21;;;;;;;;;;;;;;;8.21;100.00;99407.00;4916328;29;19923;-85
2023/04/10 01:10:56;;;;;;;;;;;;;;;8.25;100.00;99407.53;4923558;29;20300;-78
2023/04/10 01:13:26;;;;;;;;;;;;;;;8.22;100.00;99406.03;4900060;29;19927;-78
2023/04/10 01:15:57;;;;;;;;;;;;;;;8.24;100.00;99397.97;4907096;29;19919;-85
2023/04/10 01:18:52;;;;;;;;;;;;;;;8.24;100.00;99395.34;4872030;29;19926;-85
2023/04/10 01:21:20;;;;;;;;;;;;;;;8.25;100.00;99386.47;4908396;29;19950;-85
2023/04/10 01:24:06;;;;;;;;;;;;;;;8.24;100.00;99390.91;4909644;29;19922;-85
2023/04/10 01:26:37;;;;;;;;;;;;;;;8.25;100.00;99386.47;4924819;29;19920;-85
2023/04/10 01:29:08;;;;;;;;;;;;;;;8.25;100.00;99392.56;4914585;29;19918;-85
2023/04/10 01:31:54;;;;;;;;;;;;;;;8.25;100.00;99381.22;4895527;29;19966;-78
2023/04/10 01:34:24;;;;;;;;;;;;;;;8.23;100.00;99378.75;4937849;28;19934;-78
2023/04/10 01:36:54;;;;;;;;;;;;;;;8.23;100.00;99365.56;4908408;29;19978;-85
2023/04/10 01:39:20;;;;;;;;;;;;;;;8.24;100.00;99363.75;4911390;29;19963;-85
2023/04/10 01:41:50;;;;;;;;;;;;;;;8.24;100.00;99371.66;4909037;29;20074;-78
2023/04/10 01:44:18;;;;;;;;;;;;;;;8.25;100.00;99378.59;4914002;29;19946;-78
2023/04/10 01:46:44;;;;;;;;;;;;;;;8.26;100.00;99370.53;4901424;29;20395;-84
2023/04/10 01:49:11;;;;;;;;;;;;;;;8.27;100.00;99366.06;4911753;29;19925;-85
2023/04/10 01:51:37;;;;;;;;;;;;;;;8.28;100.00;99376.44;4913796;29;19925;-85
2023/04/10 01:54:07;;;;;;;;;;;;;;;8.31;100.00;99378.75;4914670;29;19915;-84
2023/04/10 01:56:33;;;;;;;;;;;;;;;8.34;100.00;99377.66;4922297;29;19915;-78
2023/04/10 01:58:59;;;;;;;;;;;;;;;8.36;100.00;99380.13;4919261;29;19914;-78
2023/04/10 02:01:25;;;;;;;;;;;;;;;8.37;100.00;99372.06;4929066;29;19924;-85
2023/04/10 02:03:51;;;;;;;;;;;;;;;8.38;100.00;99380.78;4910193;29;20034;-84
2023/04/10 02:06:20;;;;;;;;;;;;;;;8.38;100.00;99378.13;4897642;29;20466;-85
2023/04/10 02:09:08;;;;;;;;;;;;;;;8.39;100.00;99372.72;4934163;29;19915;-84
2023/04/10 02:11:42;;;;;;;;;;;;;;;8.39;100.00;99366.66;4907619;29;19919;-85
2023/04/10 02:14:10;;;;;;;;;;;;;;;8.38;100.00;99365.81;4925304;29;19966;-84
2023/04/10 02:16:37;;;;;;;;;;;;;;;8.37;100.00;99361.53;4922390;29;19955;-85
2023/04/10 02:19:04;;;;;;;;;;;;;;;8.37;100.00;99358.91;4898676;29;19923;-84
2023/04/10 02:21:32;;;;;;;;;;;;;;;8.37;100.00;99360.69;4919580;29;19971;-84
2023/04/10 02:23:59;;;;;;;;;;;;;;;8.36;100.00;99356.44;4917541;29;20384;-85
2023/04/10 02:26:24;;;;;;;;;;;;;;;8.31;100.00;99355.06;4932404;29;20014;-84
2023/04/10 02:28:50;;;;;;;;;;;;;;;8.27;100.00;99356.38;4906532;29;20591;-84
2023/04/10 02:31:16;;;;;;;;;;;;;;;8.24;100.00;99354.06;4921818;29;19920;-84
2023/04/10 02:33:42;;;;;;;;;;;;;;;8.20;100.00;99352.72;4918498;29;19919;-84
2023/04/10 02:36:07;;;;;;;;;;;;;;;8.18;100.00;99352.88;4914744;29;19947;-84
2023/04/10 02:38:33;;;;;;;;;;;;;;;8.17;100.00;99351.22;4911761;29;19927;-84
2023/04/10 02:40:59;;;;;;;;;;;;;;;8.15;100.00;99347.09;4915271;29;19918;-84
2023/04/10 02:43:25;;;;;;;;;;;;;;;8.11;100.00;99351.00;4923797;29;19923;-84
2023/04/10 02:45:51;;;;;;;;;;;;;;;8.07;100.00;99351.31;4934596;28;20261;-84
2023/04/10 02:48:25;;;;;;;;;;;;;;;8.07;100.00;99353.94;4907441;29;19925;-84
2023/04/10 02:50:56;;;;;;;;;;;;;;;8.09;100.00;99359.06;4901609;29;19923;-84
2023/04/10 02:53:22;;;;;;;;;;;;;;;8.08;100.00;99344.25;4899963;29;19923;-84
2023/04/10 02:55:51;;;;;;;;;;;;;;;8.05;100.00;99349.81;4910156;29;20255;-84
2023/04/10 02:58:16;;;;;;;;;;;;;;;8.03;100.00;99344.72;4890252;29;19920;-84
2023/04/10 03:00:47;;;;;;;;;;;;;;;8.02;100.00;99344.88;4900527;29;19916;-83
2023/04/10 03:03:22;;;;;;;;;;;;;;;7.99;100.00;99348.66;4904654;29;19919;-84
2023/04/10 03:05:52;;;;;;;;;;;;;;;7.99;100.00;99343.38;4936526;28;20077;-78
2023/04/10 03:08:23;;;;;;;;;;;;;;;8.00;100.00;99339.78;4917589;29;19919;-79
2023/04/10 03:10:49;;;;;;;;;;;;;;;7.99;100.00;99339.91;4925596;29;19925;-84
2023/04/10 03:13:16;;;;;;;;;;;;;;;7.97;100.00;99339.25;4931597;29;19923;-84
2023/04/10 03:15:41;;;;;;;;;;;;;;;7.92;100.00;99339.72;4915871;29;19923;-84
2023/04/10 03:18:08;;;;;;;;;;;;;;;7.87;100.00;99336.75;4923284;29;19929;-85
2023/04/10 03:20:40;;;;;;;;;;;;;;;7.77;100.00;99332.38;4927763;29;19919;-84
2023/04/10 03:23:06;;;;;;;;;;;;;;;7.66;100.00;99324.75;4926689;29;19945;-84
2023/04/10 03:25:35;;;;;;;;;;;;;;;7.59;100.00;99315.81;4928818;29;19927;-84
2023/04/10 03:28:03;;;;;;;;;;;;;;;7.51;100.00;99314.78;4921738;29;20560;-85
2023/04/10 03:30:29;;;;;;;;;;;;;;;7.44;100.00;99308.47;4919716;29;19988;-84
2023/04/10 03:32:54;;;;;;;;;;;;;;;7.38;100.00;99309.06;4900469;29;19918;-84
2023/04/10 03:35:21;;;;;;;;;;;;;;;7.32;100.00;99307.88;4929528;29;19965;-84
2023/04/10 03:37:46;;;;;;;;;;;;;;;7.24;100.00;99308.63;4906866;29;19951;-84
2023/04/10 03:40:13;;;;;;;;;;;;;;;7.18;100.00;99298.72;4905599;29;19919;-84
2023/04/10 03:42:38;;;;;;;;;;;;;;;7.13;100.00;99299.19;4901318;29;19923;-84
2023/04/10 03:45:05;;;;;;;;;;;;;;;7.07;100.00;99299.78;4949364;28;20306;-84
2023/04/10 03:47:31;;;;;;;;;;;;;;;7.03;100.00;99293.16;4930598;29;19928;-84
2023/04/10 03:49:59;;;;;;;;;;;;;;;6.98;100.00;99292.78;4887399;28;20021;-84
2023/04/10 03:52:26;;;;;;;;;;;;;;;6.94;100.00;99287.81;4934160;29;20373;-84
2023/04/10 03:54:54;;;;;;;;;;;;;;;6.92;100.00;99287.16;4915744;29;19922;-84
2023/04/10 03:57:25;;;;;;;;;;;;;;;6.91;100.00;99288.13;4921170;29;19967;-84
2023/04/10 03:59:56;;;;;;;;;;;;;;;6.88;100.00;99283.16;4928199;29;19926;-84
2023/04/10 04:02:22;;;;;;;;;;;;;;;6.86;100.00;99279.88;4934444;29;19930;-78
2023/04/10 04:04:49;;;;;;;;;;;;;;;6.82;100.00;99276.72;4916974;29;19931;-78
2023/04/10 04:07:37;;;;;;;;;;;;;;;6.79;100.00;99269.13;4914663;29;19918;-84
2023/04/10 04:10:18;;;;;;;;;;;;;;;6.75;100.00;99275.69;4916863;29;19923;-84
2023/04/10 04:13:11;;;;;;;;;;;;;;;6.72;100.00;99273.31;4909609;29;19974;-84
2023/04/10 04:15:47;;;;;;;;;;;;;;;6.76;100.00;99281.72;4926817;29;19978;-84
2023/04/10 04:18:31;;;;;;;;;;;;;;;6.79;100.00;99286.69;4926059;29;19930;-85
2023/04/10 04:21:16;;;;;;;;;;;;;;;6.80;100.00;99291.78;4889237;29;20019;-84
2023/04/10 04:24:05;;;;;;;;;;;;;;;6.80;100.00;99278.66;4908946;29;19998;-84
2023/04/10 04:26:51;;;;;;;;;;;;;;;6.81;100.00;99282.13;4926004;29;19926;-84
2023/04/10 04:29:35;;;;;;;;;;;;;;;6.81;100.00;99279.50;4918399;29;20443;-84
2023/04/10 04:32:12;;;;;;;;;;;;;;;6.88;100.00;99282.34;4922125;29;20014;-78
2023/04/10 04:34:58;;;;;;;;;;;;;;;6.93;100.00;99277.47;4924704;29;19918;-78
2023/04/10 04:37:41;;;;;;;;;;;;;;;6.98;100.00;99285.72;4925536;29;20280;-84
2023/04/10 04:40:26;;;;;;;;;;;;;;;7.04;100.00;99279.88;4936416;29;19923;-84
2023/04/10 04:43:06;;;;;;;;;;;;;;;7.11;100.00;99281.91;4928683;29;20021;-84
2023/04/10 04:45:58;;;;;;;;;;;;;;;7.18;100.00;99272.44;4910359;29;19930;-84
2023/04/10 04:48:50;;;;;;;;;;;;;;;7.24;100.00;99271.00;4907659;29;19927;-84
2023/04/10 04:51:42;;;;;;;;;;;;;;;7.30;100.00;99278.28;4903439;29;19923;-84
2023/04/10 04:54:28;;;;;;;;;;;;;;;7.36;100.00;99267.16;4927498;29;20276;-84
2023/04/10 04:57:20;;;;;;;;;;;;;;;7.41;100.00;99269.31;4916129;29;19927;-78
2023/04/10 05:00:15;;;;;;;;;;;;;;;7.46;100.00;99267.06;4916352;29;19919;-78
2023/04/10 05:02:59;;;;;;;;;;;;;;;7.52;100.00;99273.50;4933922;29;20411;-78
2023/04/10 05:05:39;;;;;;;;;;;;;;;7.53;100.00;99270.72;4930134;29;20072;-84
2023/04/10 05:08:27;;;;;;;;;;;;;;;7.56;100.00;99275.69;4892983;29;19923;-83
2023/04/10 05:11:01;;;;;;;;;;;;;;;7.60;100.00;99278.84;4923099;29;19925;-84
2023/04/10 05:13:50;;;;;;;;;;;;;;;7.62;100.00;99271.63;4904665;29;19989;-83
2023/04/10 05:16:21;;;;;;;;;;;;;;;7.62;100.00;99274.25;4925899;29;19923;-83
2023/04/10 05:19:11;;;;;;;;;;;;;;;7.62;100.00;99274.25;4898958;29;19923;-83
2023/04/10 05:21:55;;;;;;;;;;;;;;;7.62;100.00;99271.63;4936424;28;19926;-83
2023/04/10 05:24:39;;;;;;;;;;;;;;;7.62;100.00;99273.41;4924563;29;19930;-84
2023/04/10 05:27:10;;;;;;;;;;;;;;;7.63;100.00;99267.19;4928966;29;19954;-83
2023/04/10 05:29:56;;;;;;;;;;;;;;;7.63;100.00;99267.19;4922963;29;19927;-83
2023/04/10 05:32:54;;;;;;;;;;;;;;;7.62;100.00;99261.09;4940202;28;19977;-83
2023/04/10 05:35:40;;;;;;;;;;;;;;;7.63;100.00;99270.63;4907223;29;20013;-83
2023/04/10 05:38:29;;;;;;;;;;;;;;;7.63;100.00;99273.25;4894596;28;19926;-83
2023/04/10 05:41:15;;;;;;;;;;;;;;;7.63;100.00;99275.09;4922943;29;20363;-78
2023/04/10 05:44:04;;;;;;;;;;;;;;;7.63;100.00;99282.97;4926756;29;19962;-78
2023/04/10 05:46:50;;;;;;;;;;;;;;;7.61;100.00;99274.41;4910789;29;19953;-84
2023/04/10 05:49:42;;;;;;;;;;;;;;;7.56;100.00;99283.56;4915685;29;19919;-83
2023/04/10 05:52:16;;;;;;;;;;;;;;;7.52;100.00;99284.88;4929504;29;20327;-84
2023/04/10 05:55:01;;;;;;;;;;;;;;;7.53;100.00;99293.59;4925809;29;19923;-83
2023/04/10 05:57:45;;;;;;;;;;;;;;;7.54;100.00;99293.44;4929492;29;19919;-83
2023/04/10 06:00:32;;;;;;;;;;;;;;;7.51;100.00;99288.47;4923588;29;19919;-83
2023/04/10 06:03:26;;;;;;;;;;;;;;;7.51;100.00;99285.84;4930863;29;19923;-83
2023/04/10 06:05:56;;;;;;;;;;;;;;;7.52;100.00;99286.66;4921451;29;20434;-82
2023/04/10 06:08:22;;;;;;;;;;;;;;;7.54;100.00;99282.91;4929018;29;19982;-83
2023/04/10 06:10:48;;;;;;;;;;;;;;;7.52;100.00;99278.78;4924227;29;19919;-83
2023/04/10 06:13:14;;;;;;;;;;;;;;;7.47;100.00;99278.44;4935539;28;19919;-83
2023/04/10 06:15:40;;;;;;;;;;;;;;;7.45;100.00;99275.94;4916709;29;19988;-83
2023/04/10 06:18:06;;;;;;;;;;;;;;;7.49;100.00;99282.53;4910631;29;19923;-83
2023/04/10 06:20:32;;;;;;;;;;;;;;;7.55;100.00;99275.84;4910690;29;19927;-83
2023/04/10 06:22:58;;;;;;;;;;;;;;;7.61;100.00;99269.16;4902120;29;19922;-83
2023/04/10 06:25:24;;;;;;;;;;;;;;;7.63;100.00;99261.94;4910710;29;19923;-83
2023/04/10 06:27:50;;;;;;;;;;;;;;;7.63;100.00;99251.41;4904726;29;20091;-82
2023/04/10 06:30:15;;;;;;;;;;;;;;;7.62;100.00;99258.47;4899135;29;19975;-83
2023/04/10 06:32:41;;;;;;;;;;;;;;;7.66;100.00;99261.63;4939855;28;19938;-82
2023/04/10 06:35:07;;;;;;;;;;;;;;;7.65;100.00;99249.44;4932270;29;19919;-83
2023/04/10 06:37:33;;;;;;;;;;;;;;;7.64;100.00;99253.06;4920937;29;19927;-82
2023/04/10 06:40:10;;;;;;;;;;;;;;;7.65;100.00;99254.69;4929169;29;19919;-83
2023/04/10 06:42:36;;;;;;;;;;;;;;;7.64;100.00;99245.16;4910101;29;20458;-78
2023/04/10 06:45:13;;;;;;;;;;;;;;;7.60;100.00;99242.00;4933598;29;20331;-79
2023/04/10 06:47:39;;;;;;;;;;;;;;;7.57;100.00;99251.06;4916692;29;19923;-83
2023/04/10 06:50:04;;;;;;;;;;;;;;;7.56;100.00;99254.63;4935113;29;19926;-83
2023/04/10 06:52:30;;;;;;;;;;;;;;;7.57;100.00;99253.69;4921717;29;19927;-83
2023/04/10 06:54:57;;;;;;;;;;;;;;;7.57;100.00;99247.59;4915667;29;19926;-83
2023/04/10 06:57:22;;;;;;;;;;;;;;;7.60;100.00;99252.53;4914667;29;19923;-83
2023/04/10 06:59:48;;;;;;;;;;;;;;;7.64;100.00;99250.44;4895492;29;19941;-83
2023/04/10 07:02:14;;;;;;;;;;;;;;;7.65;100.00;99254.69;4899285;29;19978;-83
2023/04/10 07:04:40;;;;;;;;;;;;;;;7.65;100.00;99250.28;4911147;29;20434;-83
2023/04/10 07:07:08;;;;;;;;;;;;;;;7.67;100.00;99248.31;4907362;29;19926;-83
2023/04/10 07:09:34;;;;;;;;;;;;;;;7.68;100.00;99244.72;4934278;28;19970;-83
2023/04/10 07:12:00;;;;;;;;;;;;;;;7.65;100.00;99252.91;4935167;28;20330;-83
2023/04/10 07:14:25;;;;;;;;;;;;;;;7.63;100.00;99240.91;4929394;29;19994;-83
2023/04/10 07:16:52;;;;;;;;;;;;;;;7.59;100.00;99253.53;4922706;29;19968;-84
2023/04/10 07:19:18;;;;;;;;;;;;;;;7.57;100.00;99247.59;4938584;28;20430;-83
2023/04/10 07:21:44;;;;;;;;;;;;;;;7.56;100.00;99252.00;4926672;29;19919;-83
2023/04/10 07:24:09;;;;;;;;;;;;;;;7.56;100.00;99252.00;4934266;28;19925;-84
2023/04/10 07:26:35;;;;;;;;;;;;;;;7.56;100.00;99248.56;4910331;29;19923;-84
2023/04/10 07:29:01;;;;;;;;;;;;;;;7.55;100.00;99247.75;4914541;29;20378;-83
2023/04/10 07:31:26;;;;;;;;;;;;;;;7.52;100.00;99249.84;4914760;29;19923;-83
2023/04/10 07:33:52;;;;;;;;;;;;;;;7.50;100.00;99252.63;4925654;29;19974;-83
2023/04/10 07:36:18;;;;;;;;;;;;;;;7.54;100.00;99256.63;4920756;29;20818;-83
2023/04/10 07:38:43;;;;;;;;;;;;;;;7.61;100.00;99258.63;4925391;29;20001;-83
2023/04/10 07:41:10;;;;;;;;;;;;;;;7.62;100.00;99260.28;4922294;29;19969;-84
2023/04/10 07:43:36;;;;;;;;;;;;;;;7.62;100.00;99260.28;4924345;29;19966;-83
2023/04/10 07:46:02;;;;;;;;;;;;;;;7.67;100.00;99258.84;4911000;29;20398;-84
2023/04/10 07:48:27;;;;;;;;;;;;;;;7.71;100.00;99256.72;4914554;29;19930;-84
2023/04/10 07:50:53;;;;;;;;;;;;;;;7.80;100.00;99253.16;4939926;29;19922;-83
2023/04/10 07:53:19;;;;;;;;;;;;;;;7.88;100.00;99255.03;4920116;29;20013;-84
2023/04/10 07:55:47;;;;;;;;;;;;;;;7.88;100.00;99255.03;4915654;29;19970;-83
2023/04/10 07:58:13;;;;;;;;;;;;;;;7.85;100.00;99251.88;4915644;29;19954;-84
2023/04/10 08:00:39;;;;;;;;;;;;;;;7.81;100.00;99243.47;4913569;29;19957;-83
2023/04/10 08:03:05;;;;;;;;;;;;;;;7.81;100.00;99244.28;4928048;29;19923;-84
2023/04/10 08:05:31;;;;;;;;;;;;;;;7.86;100.00;99235.94;4930389;29;19923;-83
2023/04/10 08:07:58;;;;;;;;;;;;;;;7.89;100.00;99230.34;4927602;29;19922;-83
2023/04/10 08:10:23;;;;;;;;;;;;;;;7.89;100.00;99238.25;4924424;29;20009;-82
2023/04/10 08:12:49;;;;;;;;;;;;;;;7.96;100.00;99238.44;4928654;29;20013;-83
2023/04/10 08:15:16;;;;;;;;;;;;;;;7.98;100.00;99238.28;4926019;29;19926;-83
2023/04/10 08:17:41;;;;;;;;;;;;;;;7.98;100.00;99235.66;4908449;29;20378;-83
2023/04/10 08:20:07;;;;;;;;;;;;;;;7.96;100.00;99238.44;4895066;29;19946;-83
2023/04/10 08:22:33;;;;;;;;;;;;;;;7.98;100.00;99233.03;4928101;29;20535;-83
2023/04/10 08:24:58;;;;;;;;;;;;;;;8.09;100.00;99231.91;4911611;29;19931;-83
2023/04/10 08:27:24;;;;;;;;;;;;;;;8.15;100.00;99240.00;4903833;29;19927;-77
2023/04/10 08:29:49;;;;;;;;;;;;;;;8.24;100.00;99243.50;4902198;29;20014;-76
2023/04/10 08:32:15;;;;;;;;;;;;;;;8.42;100.00;99247.84;4935116;29;20005;-83
2023/04/10 08:34:41;;;;;;;;;;;;;;;8.58;100.00;99241.81;4914328;29;20067;-82
2023/04/10 08:37:08;;;;;;;;;;;;;;;8.63;100.00;99228.16;4913825;29;20041;-77
2023/04/10 08:39:35;;;;;;;;;;;;;;;8.60;100.00;99239.03;4912325;29;20399;-77
2023/04/10 08:42:01;;;;;;;;;;;;;;;8.59;100.00;99245.25;4910541;29;19922;-77
2023/04/10 08:44:27;;;;;;;;;;;;;;;8.54;100.00;99243.06;4911446;29;19934;-77
2023/04/10 08:46:54;;;;;;;;;;;;;;;8.59;100.00;99250.53;4926950;29;19919;-77
2023/04/10 08:49:30;;;;;;;;;;;;;;;8.60;100.00;99255.63;4926627;29;19945;-77
2023/04/10 08:51:57;;;;;;;;;;;;;;;8.60;100.00;99247.72;4926436;29;19962;-83
2023/04/10 08:54:27;;;;;;;;;;;;;;;8.63;100.00;99247.41;4908684;29;21010;-84
2023/04/10 08:56:54;;;;;;;;;;;;;;;8.73;100.00;99247.28;4939105;28;19926;-84
2023/04/10 08:59:20;;;;;;;;;;;;;;;8.85;100.00;99234.63;4911238;29;19943;-84
2023/04/10 09:01:46;;;;;;;;;;;;;;;8.96;100.00;99243.19;4911160;29;19923;-84
2023/04/10 09:04:12;;;;;;;;;;;;;;;9.04;100.00;99246.66;4906064;29;19923;-85
2023/04/10 09:06:37;;;;;;;;;;;;;;;9.07;100.00;99242.88;4902983;29;19920;-84
2023/04/10 09:09:06;;;;;;;;;;;;;;;9.13;100.00;99247.47;4920675;29;20308;-84
2023/04/10 09:11:50;;;;;;;;;;;;;;;9.28;100.00;99250.28;4909385;29;19919;-84
2023/04/10 09:14:20;;;;;;;;;;;;;;;9.43;100.00;99247.78;4906253;29;19977;-84
2023/04/10 09:16:46;;;;;;;;;;;;;;;9.45;100.00;99257.34;4898511;29;19920;-84
2023/04/10 09:19:12;;;;;;;;;;;;;;;9.53;100.00;99244.97;4909474;29;19926;-84
2023/04/10 09:21:38;;;;;;;;;;;;;;;9.72;100.00;99244.78;4905790;29;19919;-84
2023/04/10 09:24:03;;;;;;;;;;;;;;;9.84;100.00;99243.44;4907378;29;19927;-84
2023/04/10 09:26:32;;;;;;;;;;;;;;;9.82;100.00;99244.59;4910251;29;20440;-84
2023/04/10 09:29:02;;;;;;;;;;;;;;;9.81;100.00;99233.19;4902467;29;19919;-84
2023/04/10 09:31:31;;;;;;;;;;;;;;;9.87;100.00;99240.47;4930011;28;19919;-84
2023/04/10 09:34:23;;;;;;;;;;;;;;;9.96;100.00;99241.25;4925974;29;20439;-84
2023/04/10 09:36:56;;;;;;;;;;;;;;;10.04;100.00;99233.31;4904577;29;19967;-78
2023/04/10 09:39:31;;;;;;;;;;;;;;;10.07;100.00;99233.94;4925045;29;19919;-79
2023/04/10 09:41:57;;;;;;;;;;;;;;;10.06;100.00;99222.56;4902210;29;19947;-85
2023/04/10 09:44:32;;;;;;;;;;;;;;;10.02;100.00;99235.28;4917377;29;19927;-86
2023/04/10 09:46:58;;;;;;;;;;;;;;;10.09;100.00;99231.97;4909304;29;19930;-85
2023/04/10 09:49:24;;;;;;;;;;;;;;;10.15;100.00;99229.47;4908790;29;19923;-85
2023/04/10 09:51:49;;;;;;;;;;;;;;;10.14;100.00;99232.28;4920886;29;19966;-83
2023/04/10 09:54:15;;;;;;;;;;;;;;;10.05;100.00;99224.38;4925155;29;20030;-86
2023/04/10 09:56:44;;;;;;;;;;;;;;;9.92;100.00;99224.13;4916160;29;20390;-84
2023/04/10 09:59:10;;;;;;;;;;;;;;;9.82;100.00;99232.22;4917355;29;19966;-84
2023/04/10 10:01:38;;;;;;;;;;;;;;;9.85;100.00;99238.97;4897788;29;20471;-78
2023/04/10 10:04:03;;;;;;;;;;;;;;;9.88;100.00;99239.47;4929038;29;20427;-79
2023/04/10 10:06:30;;;;;;;;;;;;;;;9.93;100.00;99226.59;4929351;29;19985;-84
2023/04/10 10:09:01;;;;;;;;;;;;;;;10.07;100.00;99229.50;4931965;29;19922;-85
2023/04/10 10:11:28;;;;;;;;;;;;;;;10.19;100.00;99224.66;4909781;29;19923;-78
2023/04/10 10:13:55;;;;;;;;;;;;;;;10.18;100.00;99217.72;4926728;29;20451;-78
2023/04/10 10:16:28;;;;;;;;;;;;;;;10.05;100.00;99221.75;4921068;29;19973;-87
2023/04/10 10:18:58;;;;;;;;;;;;;;;9.98;100.00;99219.97;4909110;29;20013;-88
2023/04/10 10:21:26;;;;;;;;;;;;;;;9.90;100.00;99226.94;4924036;29;19923;-80
2023/04/10 10:23:53;;;;;;;;;;;;;;;9.93;100.00;99220.47;4919218;29;19946;-80
2023/04/10 10:26:22;;;;;;;;;;;;;;;9.92;100.00;99235.47;4940542;28;19923;-87
2023/04/10 10:28:49;;;;;;;;;;;;;;;9.71;100.00;99222.03;4897020;29;20384;-87
2023/04/10 10:31:17;;;;;;;;;;;;;;;9.52;100.00;99229.31;4897043;29;19927;-86
2023/04/10 10:33:43;;;;;;;;;;;;;;;9.46;100.00;99245.81;4939829;28;19923;-86
2023/04/10 10:36:12;;;;;;;;;;;;;;;9.33;100.00;99235.78;4939831;28;20394;-86
2023/04/10 10:38:40;;;;;;;;;;;;;;;9.04;100.00;99236.13;4883129;29;20043;-84
2023/04/10 10:41:20;;;;;;;;;;;;;;;8.84;100.00;99232.94;4920802;29;20077;-78
2023/04/10 10:43:51;;;;;;;;;;;;;;;8.78;100.00;99234.44;4925310;29;19925;-79
2023/04/10 10:46:31;;;;;;;;;;;;;;;8.84;100.00;99232.16;4915349;29;19973;-78
2023/04/10 10:48:57;;;;;;;;;;;;;;;8.95;100.00;99237.06;4918718;29;20495;-78
2023/04/10 10:51:23;;;;;;;;;;;;;;;9.04;100.00;99238.75;4932981;28;19941;-84
2023/04/10 10:53:48;;;;;;;;;;;;;;;9.09;100.00;99234.78;4923617;28;19944;-84
2023/04/10 10:56:17;;;;;;;;;;;;;;;9.16;100.00;99247.16;4939221;28;19934;-84
2023/04/10 10:58:46;;;;;;;;;;;;;;;9.22;100.00;99247.47;4944326;28;20002;-85
2023/04/10 11:01:11;;;;;;;;;;;;;;;9.24;100.00;99253.41;4929427;28;20408;-83
2023/04/10 11:03:37;;;;;;;;;;;;;;;9.27;100.00;99253.91;4927095;28;19919;-84
2023/04/10 11:06:07;;;;;;;;;;;;;;;9.27;100.00;99248.63;4912683;29;19920;-85
2023/04/10 11:08:38;;;;;;;;;;;;;;;9.23;100.00;99247.31;4944426;28;19914;-86
2023/04/10 11:11:08;;;;;;;;;;;;;;;9.20;100.00;99252.09;4916432;29;19915;-85
2023/04/10 11:13:35;;;;;;;;;;;;;;;9.18;100.00;99263.63;4931343;29;19967;-85
2023/04/10 11:16:02;;;;;;;;;;;;;;;9.23;100.00;99264.94;4919787;29;19919;-84
2023/04/10 11:18:46;;;;;;;;;;;;;;;9.27;100.00;99282.09;4919842;29;20411;-83
2023/04/10 11:21:12;;;;;;;;;;;;;;;8.89;100.00;99280.72;4922072;28;19997;-83
2023/04/10 11:23:59;;;;;;;;;;;;;;;8.39;100.00;99295.53;4931624;28;19918;-83
2023/04/10 11:26:34;;;;;;;;;;;;;;;7.95;100.00;99302.56;4922128;29;19946;-83
2023/04/10 11:29:00;;;;;;;;;;;;;;;7.74;100.00;99305.56;4923249;29;19944;-84
2023/04/10 11:31:26;;;;;;;;;;;;;;;7.81;100.00;99285.53;4914189;29;20311;-83
2023/04/10 11:33:52;;;;;;;;;;;;;;;7.94;100.00;99295.66;4917294;29;19931;-83
2023/04/10 11:36:18;;;;;;;;;;;;;;;8.03;100.00;99278.94;4911562;29;19914;-83
2023/04/10 11:38:56;;;;;;;;;;;;;;;8.06;100.00;99286.50;4920244;29;19967;-83
2023/04/10 11:41:32;;;;;;;;;;;;;;;8.13;100.00;99278.00;4934439;28;19915;-78
2023/04/10 11:43:59;;;;;;;;;;;;;;;8.15;100.00;99278.66;4892852;29;20678;-78
2023/04/10 11:46:25;;;;;;;;;;;;;;;8.17;100.00;99281.97;4928307;29;19919;-82
2023/04/10 11:49:01;;;;;;;;;;;;;;;8.23;100.00;99280.50;4919270;29;19929;-83
2023/04/10 11:51:27;;;;;;;;;;;;;;;8.32;100.00;99271.66;4904870;29;19926;-83
2023/04/10 11:54:09;;;;;;;;;;;;;;;8.39;100.00;99280.56;4904354;29;19922;-83
2023/04/10 11:56:35;;;;;;;;;;;;;;;8.47;100.00;99274.53;4917240;29;19922;-83
2023/04/10 11:59:01;;;;;;;;;;;;;;;8.76;100.00;99281.19;4924131;29;19925;-84
2023/04/10 12:01:27;;;;;;;;;;;;;;;8.94;100.00;99274.97;4946346;28;19931;-79
2023/04/10 12:03:53;;;;;;;;;;;;;;;9.20;100.00;99279.28;4915618;29;19919;-79
2023/04/10 12:06:19;;;;;;;;;;;;;;;9.40;100.00;99278.94;4909558;29;20009;-79
2023/04/10 12:08:49;;;;;;;;;;;;;;;9.65;100.00;99279.75;4916665;29;19921;-79
2023/04/10 12:11:22;;;;;;;;;;;;;;;9.86;100.00;99274.94;4930831;29;19919;-84
2023/04/10 12:13:51;;;;;;;;;;;;;;;9.99;100.00;99269.94;4930269;29;20033;-83
2023/04/10 12:16:17;;;;;;;;;;;;;;;10.05;100.00;99286.91;4902516;29;19919;-85
2023/04/10 12:18:44;;;;;;;;;;;;;;;9.96;100.00;99282.66;4948233;28;20001;-85
2023/04/10 12:21:09;;;;;;;;;;;;;;;9.90;100.00;99282.34;4929852;29;20402;-85
2023/04/10 12:23:37;;;;;;;;;;;;;;;9.82;100.00;99292.09;4891306;29;19958;-84
2023/04/10 12:26:13;;;;;;;;;;;;;;;9.88;100.00;99300.16;4919544;29;19922;-79
2023/04/10 12:28:40;;;;;;;;;;;;;;;10.01;100.00;99289.09;4922481;29;19926;-78
2023/04/10 12:31:06;;;;;;;;;;;;;;;10.24;100.00;99282.25;4910440;29;19919;-79
2023/04/10 12:33:31;;;;;;;;;;;;;;;10.42;100.00;99285.47;4913831;29;19922;-79
2023/04/10 12:35:58;;;;;;;;;;;;;;;10.57;100.00;99286.59;4941440;29;20263;-79
2023/04/10 12:38:36;;;;;;;;;;;;;;;10.59;100.00;99279.31;4922037;29;20018;-79
2023/04/10 12:41:02;;;;;;;;;;;;;;;10.58;100.00;99286.41;4922346;29;20347;-85
2023/04/10 12:43:35;;;;;;;;;;;;;;;10.56;100.00;99277.03;4913943;29;20500;-85
2023/04/10 12:46:02;;;;;;;;;;;;;;;10.48;100.00;99281.34;4924774;29;19951;-84
2023/04/10 12:48:27;;;;;;;;;;;;;;;10.23;100.00;99297.25;4923732;29;19918;-84
2023/04/10 12:50:53;;;;;;;;;;;;;;;9.93;100.00;99302.31;4901496;29;19919;-83
2023/04/10 12:53:19;;;;;;;;;;;;;;;9.54;100.00;99338.13;4910201;29;19927;-84
2023/04/10 12:55:58;;;;;;;;;;;;;;;9.17;100.00;99324.44;4927391;29;19915;-78
2023/04/10 12:58:27;;;;;;;;;;;;;;;8.65;100.00;99345.53;4903494;29;20366;-78
2023/04/10 13:00:54;;;;;;;;;;;;;;;8.46;100.00;99358.94;4916004;29;19918;-83
2023/04/10 13:03:20;;;;;;;;;;;;;;;8.32;100.00;99362.00;4912927;29;19954;-84